createdAt,value
2018-02-11T00:00:35.695Z,1001.51
2018-02-11T00:01:35.587Z,1001.50
2018-02-11T00:02:35.706Z,1001.56
2018-02-11T00:03:35.584Z,1001.52
2018-02-11T00:04:35.618Z,1001.46
2018-02-11T00:05:35.580Z,1001.44
2018-02-11T00:06:35.634Z,1001.43
2018-02-11T00:07:35.594Z,1001.39
2018-02-11T00:08:36.672Z,1001.42
2018-02-11T00:09:35.621Z,1001.35
2018-02-11T00:10:35.660Z,1001.37
2018-02-11T00:11:35.590Z,1001.40
2018-02-11T00:12:35.679Z,1001.30
2018-02-11T00:13:35.586Z,1001.28
2018-02-11T00:14:35.696Z,1001.24
2018-02-11T00:15:35.596Z,1001.22
2018-02-11T00:16:35.702Z,1001.26
2018-02-11T00:17:35.588Z,1001.20
2018-02-11T00:18:35.622Z,1001.16
2018-02-11T00:19:35.599Z,1001.17
2018-02-11T00:20:35.628Z,1001.13
2018-02-11T00:21:35.598Z,1001.08
2018-02-11T00:22:35.641Z,1001.05
2018-02-11T00:23:35.633Z,1000.99
2018-02-11T00:24:35.654Z,1000.98
2018-02-11T00:25:35.615Z,1000.92
2018-02-11T00:26:35.669Z,1000.89
2018-02-11T00:27:35.603Z,1000.85
2018-02-11T00:28:35.681Z,1000.90
2018-02-11T00:29:35.599Z,1000.87
2018-02-11T00:30:35.699Z,1000.90
2018-02-11T00:31:35.615Z,1000.87
2018-02-11T00:32:35.713Z,1000.83
2018-02-11T00:33:35.610Z,1000.88
2018-02-11T00:34:35.626Z,1000.87
2018-02-11T00:35:35.603Z,1000.83
2018-02-11T00:36:35.640Z,1000.85
2018-02-11T00:37:35.610Z,1000.83
2018-02-11T00:38:35.645Z,1000.81
2018-02-11T00:39:35.611Z,1000.78
2018-02-11T00:40:35.663Z,1000.70
2018-02-11T00:41:35.610Z,1000.70
2018-02-11T00:42:35.677Z,1000.69
2018-02-11T00:43:35.656Z,1000.72
2018-02-11T00:44:35.695Z,1000.64
2018-02-11T00:45:35.608Z,1000.65
2018-02-11T00:46:35.704Z,1000.59
2018-02-11T00:47:35.614Z,1000.64
2018-02-11T00:48:35.714Z,1000.66
2018-02-11T00:49:35.617Z,1000.63
2018-02-11T00:50:35.738Z,1000.60
2018-02-11T00:51:35.618Z,1000.61
2018-02-11T00:52:35.705Z,1000.61
2018-02-11T00:53:35.618Z,1000.65
2018-02-11T00:54:36.682Z,1000.67
2018-02-11T00:55:35.628Z,1000.62
2018-02-11T00:56:36.142Z,1000.60
2018-02-11T00:57:35.623Z,1000.56
2018-02-11T00:58:36.722Z,1000.54
2018-02-11T00:59:35.624Z,1000.47
2018-02-11T01:00:35.693Z,1000.52
2018-02-11T01:01:35.619Z,1000.46
2018-02-11T01:02:35.711Z,1000.45
2018-02-11T01:03:35.619Z,1000.47
2018-02-11T01:04:35.725Z,1000.45
2018-02-11T01:05:35.621Z,1000.33
2018-02-11T01:06:35.739Z,1000.32
2018-02-11T01:07:35.636Z,1000.31
2018-02-11T01:08:35.745Z,1000.26
2018-02-11T01:09:35.627Z,1000.17
2018-02-11T01:10:35.667Z,1000.26
2018-02-11T01:11:35.633Z,1000.27
2018-02-11T01:12:35.675Z,1000.24
2018-02-11T01:13:35.639Z,1000.24
2018-02-11T01:14:35.686Z,1000.15
2018-02-11T01:15:35.629Z,1000.15
2018-02-11T01:16:35.710Z,1000.12
2018-02-11T01:17:35.643Z,1000.08
2018-02-11T01:18:36.744Z,1000.03
2018-02-11T01:19:35.632Z,1000.00
2018-02-11T01:20:35.725Z,1000.03
2018-02-11T01:21:35.640Z,999.94
2018-02-11T01:22:37.690Z,999.96
2018-02-11T01:23:35.634Z,999.95
2018-02-11T01:24:35.653Z,999.95
2018-02-11T01:25:35.642Z,999.89
2018-02-11T01:26:35.664Z,999.81
2018-02-11T01:27:35.638Z,999.86
2018-02-11T01:28:36.706Z,999.84
2018-02-11T01:29:35.646Z,999.82
2018-02-11T01:30:35.693Z,999.78
2018-02-11T01:31:35.645Z,999.81
2018-02-11T01:32:35.707Z,999.74
2018-02-11T01:33:35.646Z,999.72
2018-02-11T01:34:35.718Z,999.67
2018-02-11T01:35:35.650Z,999.64
2018-02-11T01:36:35.738Z,999.65
2018-02-11T01:37:35.647Z,999.59
2018-02-11T01:38:35.766Z,999.56
2018-02-11T01:39:35.667Z,999.56
2018-02-11T01:40:35.666Z,999.52
2018-02-11T01:41:35.662Z,999.50
2018-02-11T01:42:35.757Z,999.49
2018-02-11T01:43:35.657Z,999.43
2018-02-11T01:44:35.666Z,999.50
2018-02-11T01:45:35.654Z,999.48
2018-02-11T01:46:35.681Z,999.36
2018-02-11T01:47:35.650Z,999.37
2018-02-11T01:48:35.697Z,999.32
2018-02-11T01:49:35.655Z,999.32
2018-02-11T01:50:35.716Z,999.28
2018-02-11T01:51:35.654Z,999.28
2018-02-11T01:52:35.727Z,999.30
2018-02-11T01:53:35.664Z,999.25
2018-02-11T01:54:35.769Z,999.21
2018-02-11T01:55:35.656Z,999.12
2018-02-11T01:56:35.758Z,999.13
2018-02-11T01:57:35.666Z,999.08
2018-02-11T01:58:36.698Z,999.07
2018-02-11T01:59:35.656Z,999.01
2018-02-11T02:00:35.769Z,998.98
2018-02-11T02:01:35.658Z,998.89
2018-02-11T02:02:35.777Z,998.79
2018-02-11T02:03:35.665Z,998.82
2018-02-11T02:04:35.687Z,998.78
2018-02-11T02:05:35.670Z,998.78
2018-02-11T02:06:35.693Z,998.75
2018-02-11T02:07:35.666Z,998.64
2018-02-11T02:08:35.721Z,998.55
2018-02-11T02:09:35.669Z,998.62
2018-02-11T02:10:35.727Z,998.60
2018-02-11T02:11:35.663Z,998.59
2018-02-11T02:12:35.740Z,998.46
2018-02-11T02:13:35.669Z,998.48
2018-02-11T02:14:35.753Z,998.41
2018-02-11T02:15:35.670Z,998.41
2018-02-11T02:16:35.781Z,998.40
2018-02-11T02:17:35.676Z,998.40
2018-02-11T02:18:35.781Z,998.36
2018-02-11T02:19:35.671Z,998.32
2018-02-11T02:20:35.691Z,998.27
2018-02-11T02:21:35.676Z,998.23
2018-02-11T02:22:35.706Z,998.29
2018-02-11T02:23:35.673Z,998.18
2018-02-11T02:24:35.721Z,998.17
2018-02-11T02:25:35.674Z,998.18
2018-02-11T02:26:35.781Z,998.10
2018-02-11T02:27:35.685Z,998.14
2018-02-11T02:28:35.747Z,998.11
2018-02-11T02:29:35.676Z,998.06
2018-02-11T02:30:35.781Z,998.06
2018-02-11T02:31:35.684Z,997.91
2018-02-11T02:32:35.780Z,997.90
2018-02-11T02:33:35.686Z,997.81
2018-02-11T02:34:35.791Z,997.79
2018-02-11T02:35:35.680Z,997.78
2018-02-11T02:36:35.702Z,997.65
2018-02-11T02:37:35.680Z,997.68
2018-02-11T02:38:35.740Z,997.63
2018-02-11T02:39:35.689Z,997.57
2018-02-11T02:40:35.721Z,997.40
2018-02-11T02:41:35.680Z,997.48
2018-02-11T02:42:35.735Z,997.51
2018-02-11T02:43:35.710Z,997.39
2018-02-11T02:44:35.760Z,997.41
2018-02-11T02:45:35.683Z,997.41
2018-02-11T02:46:35.768Z,997.39
2018-02-11T02:47:35.685Z,997.43
2018-02-11T02:48:35.777Z,997.38
2018-02-11T02:49:35.688Z,997.38
2018-02-11T02:50:35.799Z,997.19
2018-02-11T02:51:35.694Z,997.21
2018-02-11T02:52:35.840Z,997.19
2018-02-11T02:53:35.683Z,997.10
2018-02-11T02:54:35.742Z,997.00
2018-02-11T02:55:35.688Z,996.92
2018-02-11T02:56:35.747Z,996.80
2018-02-11T02:57:35.696Z,996.78
2018-02-11T02:58:36.781Z,996.71
2018-02-11T02:59:35.712Z,996.74
2018-02-11T03:00:35.773Z,996.68
2018-02-11T03:01:35.703Z,996.60
2018-02-11T03:02:36.808Z,996.60
2018-02-11T03:03:35.698Z,996.53
2018-02-11T03:04:35.794Z,996.50
2018-02-11T03:05:35.697Z,996.47
2018-02-11T03:06:35.810Z,996.45
2018-02-11T03:07:35.697Z,996.41
2018-02-11T03:08:35.724Z,996.31
2018-02-11T03:09:35.699Z,996.30
2018-02-11T03:10:35.731Z,996.28
2018-02-11T03:11:35.704Z,996.25
2018-02-11T03:12:35.747Z,996.15
2018-02-11T03:13:35.700Z,996.16
2018-02-11T03:14:40.674Z,996.13
2018-02-11T03:15:35.706Z,996.13
2018-02-11T03:16:35.773Z,996.08
2018-02-11T03:17:35.700Z,996.04
2018-02-11T03:18:37.733Z,995.99
2018-02-11T03:19:35.711Z,995.96
2018-02-11T03:20:35.804Z,995.94
2018-02-11T03:21:35.705Z,995.98
2018-02-11T03:22:35.812Z,995.91
2018-02-11T03:23:35.713Z,995.84
2018-02-11T03:24:35.729Z,995.84
2018-02-11T03:25:35.709Z,995.79
2018-02-11T03:26:35.739Z,995.89
2018-02-11T03:27:35.706Z,995.84
2018-02-11T03:28:36.911Z,995.75
2018-02-11T03:29:35.709Z,995.72
2018-02-11T03:30:35.824Z,995.68
2018-02-11T03:31:35.713Z,995.65
2018-02-11T03:32:36.807Z,995.74
2018-02-11T03:33:35.711Z,995.64
2018-02-11T03:34:35.794Z,995.61
2018-02-11T03:35:35.708Z,995.61
2018-02-11T03:36:35.836Z,995.57
2018-02-11T03:37:35.713Z,995.53
2018-02-11T03:38:35.819Z,995.52
2018-02-11T03:39:35.712Z,995.51
2018-02-11T03:40:35.731Z,995.52
2018-02-11T03:41:35.720Z,995.41
2018-02-11T03:42:35.760Z,995.36
2018-02-11T03:43:35.740Z,995.44
2018-02-11T03:44:35.764Z,995.32
2018-02-11T03:45:35.717Z,995.34
2018-02-11T03:46:35.775Z,995.30
2018-02-11T03:47:35.720Z,995.25
2018-02-11T03:48:35.791Z,995.23
2018-02-11T03:49:35.717Z,995.17
2018-02-11T03:50:35.806Z,995.13
2018-02-11T03:51:35.734Z,995.13
2018-02-11T03:52:35.815Z,995.13
2018-02-11T03:53:35.722Z,995.14
2018-02-11T03:54:35.829Z,995.07
2018-02-11T03:55:35.721Z,995.14
2018-02-11T03:56:35.734Z,995.15
2018-02-11T03:57:35.726Z,995.08
2018-02-11T03:58:35.857Z,995.08
2018-02-11T03:59:35.727Z,995.10
2018-02-11T04:00:37.766Z,994.99
2018-02-11T04:01:35.781Z,995.04
2018-02-11T04:02:40.647Z,994.99
2018-02-11T04:03:35.732Z,995.04
2018-02-11T04:04:35.746Z,995.01
2018-02-11T04:05:35.722Z,995.01
2018-02-11T04:06:36.781Z,995.00
2018-02-11T04:07:35.726Z,995.05
2018-02-11T04:08:37.823Z,995.03
2018-02-11T04:09:35.722Z,994.98
2018-02-11T04:10:35.793Z,995.04
2018-02-11T04:11:35.727Z,994.90
2018-02-11T04:12:35.758Z,994.94
2018-02-11T04:13:35.727Z,994.91
2018-02-11T04:14:35.781Z,994.85
2018-02-11T04:15:35.745Z,994.85
2018-02-11T04:16:35.791Z,994.81
2018-02-11T04:17:35.736Z,994.85
2018-02-11T04:18:35.812Z,994.76
2018-02-11T04:19:35.729Z,994.80
2018-02-11T04:20:35.821Z,994.75
2018-02-11T04:21:35.745Z,994.73
2018-02-11T04:22:35.833Z,994.75
2018-02-11T04:23:35.749Z,994.79
2018-02-11T04:24:35.850Z,994.71
2018-02-11T04:25:35.738Z,994.69
2018-02-11T04:26:35.758Z,994.66
2018-02-11T04:27:35.741Z,994.62
2018-02-11T04:28:36.796Z,994.60
2018-02-11T04:29:35.769Z,994.59
2018-02-11T04:30:35.784Z,994.57
2018-02-11T04:31:35.750Z,994.58
2018-02-11T04:32:35.795Z,994.53
2018-02-11T04:33:35.734Z,994.52
2018-02-11T04:34:35.816Z,994.49
2018-02-11T04:35:35.734Z,994.41
2018-02-11T04:36:35.822Z,994.34
2018-02-11T04:37:35.741Z,994.31
2018-02-11T04:38:36.864Z,994.30
2018-02-11T04:39:35.736Z,994.31
2018-02-11T04:40:35.849Z,994.33
2018-02-11T04:41:35.751Z,994.26
2018-02-11T04:42:35.758Z,994.25
2018-02-11T04:43:35.738Z,994.29
2018-02-11T04:44:35.771Z,994.21
2018-02-11T04:45:35.753Z,994.26
2018-02-11T04:46:35.795Z,994.20
2018-02-11T04:47:35.745Z,994.15
2018-02-11T04:48:35.804Z,994.14
2018-02-11T04:49:35.767Z,994.16
2018-02-11T04:50:35.814Z,994.12
2018-02-11T04:51:35.771Z,994.14
2018-02-11T04:52:35.831Z,994.06
2018-02-11T04:53:35.747Z,994.05
2018-02-11T04:54:35.856Z,993.96
2018-02-11T04:55:35.755Z,993.93
2018-02-11T04:56:36.783Z,993.95
2018-02-11T04:57:35.772Z,993.94
2018-02-11T04:58:35.914Z,993.90
2018-02-11T04:59:35.755Z,993.93
2018-02-11T05:00:35.782Z,993.85
2018-02-11T05:01:35.750Z,993.83
2018-02-11T05:02:35.793Z,993.83
2018-02-11T05:03:35.796Z,993.93
2018-02-11T05:04:35.804Z,993.83
2018-02-11T05:05:35.755Z,993.80
2018-02-11T05:06:35.818Z,993.84
2018-02-11T05:07:35.751Z,993.76
2018-02-11T05:08:35.761Z,993.79
2018-02-11T05:09:35.755Z,993.76
2018-02-11T05:10:35.875Z,993.69
2018-02-11T05:11:35.767Z,993.73
2018-02-11T05:12:35.861Z,993.65
2018-02-11T05:13:35.761Z,993.60
2018-02-11T05:14:35.789Z,993.61
2018-02-11T05:15:35.775Z,993.50
2018-02-11T05:16:35.785Z,993.55
2018-02-11T05:17:35.753Z,993.55
2018-02-11T05:18:35.829Z,993.55
2018-02-11T05:19:35.762Z,993.51
2018-02-11T05:20:35.811Z,993.48
2018-02-11T05:21:35.777Z,993.46
2018-02-11T05:22:35.835Z,993.47
2018-02-11T05:23:35.769Z,993.45
2018-02-11T05:24:35.900Z,993.45
2018-02-11T05:25:35.762Z,993.46
2018-02-11T05:26:35.857Z,993.48
2018-02-11T05:27:35.769Z,993.52
2018-02-11T05:28:35.868Z,993.52
2018-02-11T05:29:35.763Z,993.45
2018-02-11T05:30:36.812Z,993.44
2018-02-11T05:31:35.773Z,993.41
2018-02-11T05:32:35.794Z,993.39
2018-02-11T05:33:35.766Z,993.34
2018-02-11T05:34:35.806Z,993.33
2018-02-11T05:35:35.769Z,993.24
2018-02-11T05:36:35.831Z,993.20
2018-02-11T05:37:35.772Z,993.27
2018-02-11T05:38:35.842Z,993.28
2018-02-11T05:39:35.782Z,993.18
2018-02-11T05:40:35.851Z,993.10
2018-02-11T05:41:35.768Z,993.08
2018-02-11T05:42:35.865Z,993.05
2018-02-11T05:43:35.772Z,993.09
2018-02-11T05:44:35.879Z,993.06
2018-02-11T05:45:35.765Z,993.09
2018-02-11T05:46:35.794Z,993.05
2018-02-11T05:47:35.771Z,992.93
2018-02-11T05:48:35.796Z,993.01
2018-02-11T05:49:35.772Z,992.97
2018-02-11T05:50:35.812Z,993.00
2018-02-11T05:51:35.774Z,992.96
2018-02-11T05:52:35.827Z,992.97
2018-02-11T05:53:35.783Z,992.94
2018-02-11T05:54:35.838Z,992.94
2018-02-11T05:55:35.780Z,992.95
2018-02-11T05:56:35.859Z,992.94
2018-02-11T05:57:35.791Z,992.88
2018-02-11T05:58:35.869Z,992.89
2018-02-11T05:59:35.774Z,992.86
2018-02-11T06:00:35.900Z,992.83
2018-02-11T06:01:35.780Z,992.89
2018-02-11T06:02:35.813Z,992.82
2018-02-11T06:03:35.810Z,992.75
2018-02-11T06:04:36.830Z,992.76
2018-02-11T06:05:35.787Z,992.84
2018-02-11T06:06:35.821Z,992.80
2018-02-11T06:07:35.782Z,992.78
2018-02-11T06:08:35.833Z,992.75
2018-02-11T06:09:35.783Z,992.66
2018-02-11T06:10:36.871Z,992.67
2018-02-11T06:11:35.781Z,992.69
2018-02-11T06:12:35.861Z,992.66
2018-02-11T06:13:35.801Z,992.71
2018-02-11T06:14:35.875Z,992.66
2018-02-11T06:15:35.780Z,992.62
2018-02-11T06:16:35.890Z,992.62
2018-02-11T06:17:35.781Z,992.53
2018-02-11T06:18:35.906Z,992.57
2018-02-11T06:19:35.791Z,992.63
2018-02-11T06:20:35.835Z,992.53
2018-02-11T06:21:35.795Z,992.54
2018-02-11T06:22:35.883Z,992.56
2018-02-11T06:23:35.804Z,992.57
2018-02-11T06:24:35.908Z,992.51
2018-02-11T06:25:35.786Z,992.45
2018-02-11T06:26:36.874Z,992.48
2018-02-11T06:27:35.792Z,992.37
2018-02-11T06:28:35.873Z,992.44
2018-02-11T06:29:35.793Z,992.36
2018-02-11T06:30:35.888Z,992.42
2018-02-11T06:31:35.795Z,992.40
2018-02-11T06:32:35.892Z,992.42
2018-02-11T06:33:35.793Z,992.39
2018-02-11T06:34:35.803Z,992.39
2018-02-11T06:35:35.803Z,992.37
2018-02-11T06:36:37.945Z,992.33
2018-02-11T06:37:35.800Z,992.33
2018-02-11T06:38:35.858Z,992.39
2018-02-11T06:39:35.787Z,992.37
2018-02-11T06:40:35.845Z,992.43
2018-02-11T06:41:35.803Z,992.47
2018-02-11T06:42:40.668Z,992.38
2018-02-11T06:43:35.794Z,992.41
2018-02-11T06:44:35.870Z,992.39
2018-02-11T06:45:35.798Z,992.47
2018-02-11T06:46:35.939Z,992.42
2018-02-11T06:47:35.809Z,992.44
2018-02-11T06:48:35.907Z,992.54
2018-02-11T06:49:35.799Z,992.46
2018-02-11T06:50:35.823Z,992.47
2018-02-11T06:51:35.800Z,992.44
2018-02-11T06:52:35.826Z,992.51
2018-02-11T06:53:35.799Z,992.52
2018-02-11T06:54:35.844Z,992.47
2018-02-11T06:55:35.801Z,992.45
2018-02-11T06:56:35.872Z,992.48
2018-02-11T06:57:35.803Z,992.52
2018-02-11T06:58:35.905Z,992.54
2018-02-11T06:59:35.799Z,992.55
2018-02-11T07:00:35.886Z,992.64
2018-02-11T07:01:35.822Z,992.54
2018-02-11T07:02:35.899Z,992.64
2018-02-11T07:03:35.797Z,992.54
2018-02-11T07:04:35.913Z,992.54
2018-02-11T07:05:35.802Z,992.63
2018-02-11T07:06:35.827Z,992.61
2018-02-11T07:07:35.830Z,992.55
2018-02-11T07:08:35.851Z,992.55
2018-02-11T07:09:35.814Z,992.58
2018-02-11T07:10:35.888Z,992.60
2018-02-11T07:11:35.816Z,992.54
2018-02-11T07:12:35.889Z,992.60
2018-02-11T07:13:35.806Z,992.55
2018-02-11T07:14:35.870Z,992.60
2018-02-11T07:15:35.816Z,992.54
2018-02-11T07:16:38.061Z,992.47
2018-02-11T07:17:35.806Z,992.56
2018-02-11T07:18:35.900Z,992.57
2018-02-11T07:19:35.816Z,992.58
2018-02-11T07:20:35.832Z,992.57
2018-02-11T07:21:35.810Z,992.44
2018-02-11T07:22:35.828Z,992.48
2018-02-11T07:23:35.817Z,992.56
2018-02-11T07:24:35.835Z,992.47
2018-02-11T07:25:35.812Z,992.59
2018-02-11T07:26:35.858Z,992.58
2018-02-11T07:27:35.827Z,992.53
2018-02-11T07:28:35.815Z,992.57
2018-02-11T07:29:35.810Z,992.53
2018-02-11T07:30:35.822Z,992.55
2018-02-11T07:31:35.896Z,992.48
2018-02-11T07:32:35.856Z,992.48
2018-02-11T07:33:35.908Z,992.49
2018-02-11T07:34:35.823Z,992.65
2018-02-11T07:35:35.926Z,992.62
2018-02-11T07:36:35.829Z,992.68
2018-02-11T07:37:35.936Z,992.64
2018-02-11T07:38:35.822Z,992.66
2018-02-11T07:39:35.858Z,992.53
2018-02-11T07:40:35.827Z,992.59
2018-02-11T07:41:35.818Z,992.53
2018-02-11T07:42:35.856Z,992.62
2018-02-11T07:43:35.824Z,992.64
2018-02-11T07:44:35.848Z,992.70
2018-02-11T07:45:35.868Z,992.72
2018-02-11T07:46:35.828Z,992.68
2018-02-11T07:47:35.835Z,992.72
2018-02-11T07:48:35.822Z,992.61
2018-02-11T07:49:35.826Z,992.71
2018-02-11T07:50:35.827Z,992.73
2018-02-11T07:51:35.827Z,992.72
2018-02-11T07:52:35.925Z,992.79
2018-02-11T07:53:35.826Z,992.67
2018-02-11T07:54:35.824Z,992.68
2018-02-11T07:55:35.862Z,992.66
2018-02-11T07:56:35.829Z,992.73
2018-02-11T07:57:35.843Z,992.75
2018-02-11T07:58:35.870Z,992.84
2018-02-11T07:59:35.839Z,992.82
2018-02-11T08:00:35.863Z,992.94
2018-02-11T08:01:35.826Z,992.85
2018-02-11T08:02:35.840Z,992.91
2018-02-11T08:03:35.827Z,992.94
2018-02-11T08:04:35.906Z,992.95
2018-02-11T08:05:35.844Z,992.90
2018-02-11T08:06:35.832Z,992.91
2018-02-11T08:07:35.833Z,992.91
2018-02-11T08:08:35.934Z,992.92
2018-02-11T08:09:35.836Z,992.89
2018-02-11T08:10:35.984Z,992.91
2018-02-11T08:11:35.836Z,992.93
2018-02-11T08:12:35.858Z,992.92
2018-02-11T08:13:35.840Z,992.96
2018-02-11T08:14:35.871Z,992.96
2018-02-11T08:15:35.856Z,992.99
2018-02-11T08:16:35.895Z,992.97
2018-02-11T08:17:35.861Z,992.98
2018-02-11T08:18:35.955Z,992.95
2018-02-11T08:19:35.839Z,993.01
2018-02-11T08:20:35.922Z,993.00
2018-02-11T08:21:35.841Z,992.97
2018-02-11T08:22:35.839Z,992.99
2018-02-11T08:23:36.857Z,992.96
2018-02-11T08:24:35.851Z,993.01
2018-02-11T08:25:36.084Z,992.92
2018-02-11T08:26:35.905Z,992.94
2018-02-11T08:27:35.873Z,993.05
2018-02-11T08:28:35.841Z,993.00
2018-02-11T08:29:35.871Z,992.98
2018-02-11T08:30:35.863Z,993.03
2018-02-11T08:31:35.881Z,992.98
2018-02-11T08:32:35.853Z,992.98
2018-02-11T08:33:35.900Z,992.95
2018-02-11T08:34:35.846Z,992.98
2018-02-11T08:35:35.944Z,992.87
2018-02-11T08:36:35.845Z,992.89
2018-02-11T08:37:35.844Z,992.87
2018-02-11T08:38:35.842Z,992.92
2018-02-11T08:39:35.849Z,992.85
2018-02-11T08:40:35.848Z,992.87
2018-02-11T08:41:35.863Z,992.79
2018-02-11T08:42:35.850Z,992.83
2018-02-11T08:43:35.856Z,992.85
2018-02-11T08:44:35.868Z,992.84
2018-02-11T08:45:35.849Z,992.81
2018-02-11T08:46:35.888Z,992.79
2018-02-11T08:47:35.854Z,992.84
2018-02-11T08:48:35.906Z,992.86
2018-02-11T08:49:35.847Z,992.74
2018-02-11T08:50:35.929Z,992.78
2018-02-11T08:51:35.865Z,992.76
2018-02-11T08:52:35.858Z,992.74
2018-02-11T08:53:35.929Z,992.78
2018-02-11T08:54:35.852Z,992.71
2018-02-11T08:55:35.974Z,992.74
2018-02-11T08:56:35.852Z,992.74
2018-02-11T08:57:35.959Z,992.76
2018-02-11T08:58:35.853Z,992.80
2018-02-11T08:59:35.882Z,992.79
2018-02-11T09:00:35.859Z,992.85
2018-02-11T09:01:35.925Z,992.79
2018-02-11T09:02:35.857Z,992.80
2018-02-11T09:03:35.896Z,992.83
2018-02-11T09:04:35.857Z,992.79
2018-02-11T09:05:35.852Z,992.76
2018-02-11T09:06:35.891Z,992.75
2018-02-11T09:07:35.862Z,992.70
2018-02-11T09:08:35.857Z,992.75
2018-02-11T09:09:35.869Z,992.77
2018-02-11T09:10:35.945Z,992.75
2018-02-11T09:11:35.867Z,992.84
2018-02-11T09:12:35.960Z,992.81
2018-02-11T09:13:35.857Z,992.78
2018-02-11T09:14:35.986Z,992.80
2018-02-11T09:15:35.862Z,992.77
2018-02-11T09:16:35.890Z,992.76
2018-02-11T09:17:35.868Z,992.74
2018-02-11T09:18:35.905Z,992.76
2018-02-11T09:19:35.862Z,992.81
2018-02-11T09:20:36.934Z,992.78
2018-02-11T09:21:35.868Z,992.77
2018-02-11T09:22:35.864Z,992.81
2018-02-11T09:23:35.872Z,992.84
2018-02-11T09:24:35.942Z,992.82
2018-02-11T09:25:35.872Z,992.86
2018-02-11T09:26:35.948Z,992.88
2018-02-11T09:27:35.873Z,992.87
2018-02-11T09:28:35.867Z,992.94
2018-02-11T09:29:35.873Z,992.89
2018-02-11T09:30:35.881Z,992.90
2018-02-11T09:31:35.988Z,992.84
2018-02-11T09:32:35.872Z,992.82
2018-02-11T09:33:35.880Z,992.85
2018-02-11T09:34:35.868Z,992.84
2018-02-11T09:35:35.900Z,992.87
2018-02-11T09:36:35.870Z,992.90
2018-02-11T09:37:35.885Z,992.84
2018-02-11T09:38:37.988Z,992.82
2018-02-11T09:39:35.904Z,992.91
2018-02-11T09:40:35.872Z,992.91
2018-02-11T09:41:35.880Z,992.88
2018-02-11T09:42:35.875Z,992.85
2018-02-11T09:43:35.892Z,992.87
2018-02-11T09:44:35.913Z,992.92
2018-02-11T09:45:35.880Z,992.88
2018-02-11T09:46:35.896Z,992.89
2018-02-11T09:47:36.912Z,992.89
2018-02-11T09:48:35.878Z,992.91
2018-02-11T09:49:35.882Z,992.97
2018-02-11T09:50:35.909Z,992.83
2018-02-11T09:51:35.897Z,992.94
2018-02-11T09:52:35.948Z,992.92
2018-02-11T09:53:35.884Z,992.88
2018-02-11T09:54:35.940Z,992.89
2018-02-11T09:55:35.881Z,992.87
2018-02-11T09:56:35.955Z,992.83
2018-02-11T09:57:35.885Z,992.89
2018-02-11T09:58:35.968Z,992.95
2018-02-11T09:59:35.889Z,992.91
2018-02-11T10:00:35.885Z,992.98
2018-02-11T10:01:35.898Z,992.94
2018-02-11T10:02:35.906Z,992.91
2018-02-11T10:03:35.888Z,992.93
2018-02-11T10:04:35.910Z,992.93
2018-02-11T10:05:35.887Z,992.94
2018-02-11T10:06:35.894Z,992.99
2018-02-11T10:07:35.889Z,992.94
2018-02-11T10:08:36.965Z,992.97
2018-02-11T10:09:35.901Z,992.99
2018-02-11T10:10:35.943Z,992.97
2018-02-11T10:11:35.891Z,992.94
2018-02-11T10:12:35.951Z,992.99
2018-02-11T10:13:35.900Z,993.04
2018-02-11T10:14:35.899Z,993.01
2018-02-11T10:15:35.907Z,993.02
2018-02-11T10:16:35.890Z,992.98
2018-02-11T10:17:35.895Z,993.02
2018-02-11T10:18:35.898Z,993.00
2018-02-11T10:19:35.922Z,992.99
2018-02-11T10:20:35.897Z,992.96
2018-02-11T10:21:35.891Z,993.07
2018-02-11T10:22:35.897Z,993.06
2018-02-11T10:23:35.902Z,993.11
2018-02-11T10:24:35.907Z,993.10
2018-02-11T10:25:35.948Z,993.04
2018-02-11T10:26:35.939Z,993.03
2018-02-11T10:27:35.961Z,993.08
2018-02-11T10:28:35.922Z,992.99
2018-02-11T10:29:35.975Z,993.03
2018-02-11T10:30:35.905Z,993.02
2018-02-11T10:31:35.904Z,993.03
2018-02-11T10:32:35.913Z,993.07
2018-02-11T10:33:36.005Z,993.05
2018-02-11T10:34:35.905Z,993.04
2018-02-11T10:35:36.008Z,993.07
2018-02-11T10:36:35.908Z,993.05
2018-02-11T10:37:35.904Z,993.11
2018-02-11T10:38:35.906Z,993.08
2018-02-11T10:39:36.034Z,993.09
2018-02-11T10:40:35.912Z,993.13
2018-02-11T10:41:35.918Z,993.09
2018-02-11T10:42:35.951Z,993.12
2018-02-11T10:43:35.911Z,993.07
2018-02-11T10:44:35.914Z,993.18
2018-02-11T10:45:35.914Z,993.10
2018-02-11T10:46:35.984Z,993.11
2018-02-11T10:47:35.910Z,993.08
2018-02-11T10:48:35.918Z,993.17
2018-02-11T10:49:35.956Z,993.16
2018-02-11T10:50:36.011Z,993.22
2018-02-11T10:51:35.943Z,993.23
2018-02-11T10:52:36.022Z,993.23
2018-02-11T10:53:35.916Z,993.17
2018-02-11T10:54:35.931Z,993.18
2018-02-11T10:55:35.925Z,993.26
2018-02-11T10:56:35.946Z,993.10
2018-02-11T10:57:35.937Z,993.20
2018-02-11T10:58:35.926Z,993.21
2018-02-11T10:59:35.933Z,993.17
2018-02-11T11:00:35.923Z,993.11
2018-02-11T11:01:35.918Z,993.17
2018-02-11T11:02:35.990Z,993.13
2018-02-11T11:03:35.926Z,993.16
2018-02-11T11:04:35.924Z,993.22
2018-02-11T11:05:35.929Z,993.13
2018-02-11T11:06:35.928Z,993.21
2018-02-11T11:07:35.974Z,993.10
2018-02-11T11:08:35.934Z,993.17
2018-02-11T11:09:35.943Z,993.14
2018-02-11T11:10:35.926Z,993.17
2018-02-11T11:11:35.942Z,993.12
2018-02-11T11:12:35.933Z,993.23
2018-02-11T11:13:35.937Z,993.17
2018-02-11T11:14:35.935Z,993.21
2018-02-11T11:15:35.948Z,993.14
2018-02-11T11:16:35.989Z,993.21
2018-02-11T11:17:35.941Z,993.25
2018-02-11T11:18:35.956Z,993.19
2018-02-11T11:19:38.036Z,993.23
2018-02-11T11:20:35.951Z,993.32
2018-02-11T11:21:35.939Z,993.33
2018-02-11T11:22:37.086Z,993.31
2018-02-11T11:23:36.014Z,993.26
2018-02-11T11:24:36.229Z,993.26
2018-02-11T11:25:35.958Z,993.30
2018-02-11T11:26:37.060Z,993.21
2018-02-11T11:27:35.946Z,993.29
2018-02-11T11:28:37.999Z,993.24
2018-02-11T11:29:35.954Z,993.25
2018-02-11T11:30:38.011Z,993.24
2018-02-11T11:31:35.966Z,993.24
2018-02-11T11:32:38.079Z,993.23
2018-02-11T11:33:35.957Z,993.23
2018-02-11T11:34:35.995Z,993.27
2018-02-11T11:35:35.971Z,993.23
2018-02-11T11:36:38.059Z,993.16
2018-02-11T11:37:35.981Z,993.26
2018-02-11T11:38:35.988Z,993.21
2018-02-11T11:39:35.965Z,993.23
2018-02-11T11:40:35.996Z,993.22
2018-02-11T11:41:35.963Z,993.31
2018-02-11T11:42:35.969Z,993.24
2018-02-11T11:43:36.004Z,993.29
2018-02-11T11:44:35.972Z,993.32
2018-02-11T11:45:35.971Z,993.29
2018-02-11T11:46:35.992Z,993.32
2018-02-11T11:47:35.980Z,993.31
2018-02-11T11:48:36.050Z,993.35
2018-02-11T11:49:35.978Z,993.35
2018-02-11T11:50:36.117Z,993.39
2018-02-11T11:51:35.976Z,993.34
2018-02-11T11:52:36.080Z,993.39
2018-02-11T11:53:35.983Z,993.39
2018-02-11T11:54:35.999Z,993.38
2018-02-11T11:55:35.986Z,993.40
2018-02-11T11:56:35.984Z,993.39
2018-02-11T11:57:35.994Z,993.36
2018-02-11T11:58:40.712Z,993.40
2018-02-11T11:59:36.006Z,993.39
2018-02-11T12:00:36.144Z,993.44
2018-02-11T12:01:35.992Z,993.39
2018-02-11T12:02:37.059Z,993.44
2018-02-11T12:03:35.993Z,993.43
2018-02-11T12:04:36.055Z,993.41
2018-02-11T12:05:35.997Z,993.37
2018-02-11T12:06:36.118Z,993.29
2018-02-11T12:07:36.023Z,993.32
2018-02-11T12:08:36.004Z,993.38
2018-02-11T12:09:36.041Z,993.33
2018-02-11T12:10:36.009Z,993.35
2018-02-11T12:11:37.062Z,993.33
2018-02-11T12:12:36.004Z,993.36
2018-02-11T12:13:36.061Z,993.26
2018-02-11T12:14:36.018Z,993.32
2018-02-11T12:15:37.063Z,993.31
2018-02-11T12:16:36.082Z,993.36
2018-02-11T12:17:36.128Z,993.38
2018-02-11T12:18:36.012Z,993.35
2018-02-11T12:19:36.051Z,993.32
2018-02-11T12:20:36.018Z,993.34
2018-02-11T12:21:37.044Z,993.30
2018-02-11T12:22:36.022Z,993.30
2018-02-11T12:23:36.073Z,993.28
2018-02-11T12:24:36.025Z,993.31
2018-02-11T12:25:36.090Z,993.33